TLPC/SLU METAR and TAF weather

Enter ICAO airport designator
Station Type Date Time Source
TLPC METAR 2019/02/20 00:00 UTC NOAA

TLPC 200000Z 09010KT 9999 SCT022 25/20 Q1017 TEMPO SHRA


Station Type Date Time Source
TLPC Decoded METAR 2019/02/20 00:00 UTC NOAA

Vigie, Saint Lucia (TLPC) 14-01N 061-00W 2M
Feb 19, 2019 - 07:00 PM EST / 2019.02.20 0000 UTC
Wind: from the E (090 degrees) at 12 MPH (10 KT):0
Visibility: greater than 7 mile(s):0
Sky conditions: partly cloudy
Temperature: 77 F (25 C)
Dew Point: 68 F (20 C)
Relative Humidity: 73%
Pressure (altimeter): 30.03 in. Hg (1017 hPa)
ob: TLPC 200000Z 09010KT 9999 SCT022 25/20 Q1017 TEMPO SHRA
cycle: 0

Station Type Date Time Source
TLPC TAF 2019/02/20 06:06 UTC NOAA

TAF TAF TLPC 200500Z 2006/2106 10009KT 9999 SCT024
TEMPO 2006/2012 SHRA


Example: see airport list